Time;durP1;ratioP1;P1;durP2;ratioP2;P2;SDS_P1;SDS_P2;PMS_P1;PMS_P2;Temp;Humidity;BMP_temperature;BMP_pressure;BME280_temperature;BME280_humidity;BME280_pressure;Samples;Min_cycle;Max_cycle;Signal;HPM_P1;HPM_P2
2024/05/05 00:00:10;;;;;;;1.45;1.13;;;;;;;12.60;88.65;99693.97;5288267;26;20001;-57
2024/05/05 00:02:35;;;;;;;3.00;1.00;;;;;;;12.53;88.35;99680.84;5282089;26;20010;-57
2024/05/05 00:05:00;;;;;;;1.05;0.95;;;;;;;12.60;88.88;99699.97;5283929;27;20014;-56
2024/05/05 00:07:26;;;;;;;1.40;1.17;;;;;;;12.58;88.57;99691.53;5287713;26;20013;-57
2024/05/05 00:09:51;;;;;;;1.70;1.20;;;;;;;12.54;89.13;99685.06;5294185;27;20017;-56
2024/05/05 00:12:16;;;;;;;1.83;1.20;;;;;;;12.42;89.28;99671.75;5289562;26;20002;-55
2024/05/05 00:14:42;;;;;;;2.33;1.35;;;;;;;12.53;89.59;99683.47;5290354;26;20078;-55
2024/05/05 00:17:07;;;;;;;2.00;1.20;;;;;;;12.31;89.56;99648.00;5297907;27;20010;-60
2024/05/05 00:19:32;;;;;;;1.75;1.38;;;;;;;12.46;89.77;99674.78;5289104;26;20002;-59
2024/05/05 00:21:58;;;;;;;2.30;1.27;;;;;;;12.50;90.12;99670.81;5289992;26;20120;-56
2024/05/05 00:24:23;;;;;;;1.40;1.00;;;;;;;12.43;89.55;99672.56;5299594;26;20083;-57
2024/05/05 00:26:48;;;;;;;1.20;1.10;;;;;;;12.48;89.86;99685.03;5281142;26;20082;-56
2024/05/05 00:29:14;;;;;;;1.92;1.50;;;;;;;12.46;90.22;99677.41;5290523;26;20002;-56
2024/05/05 00:31:39;;;;;;;1.73;1.13;;;;;;;12.40;89.99;99678.13;5289980;26;20454;-56
2024/05/05 00:34:04;;;;;;;1.42;1.00;;;;;;;12.45;90.44;99683.59;5298934;26;20366;-56
2024/05/05 00:36:30;;;;;;;1.13;1.00;;;;;;;12.47;90.52;99684.22;5305877;26;20579;-55
2024/05/05 00:38:55;;;;;;;1.13;1.02;;;;;;;11.98;90.34;99609.41;5296396;27;20426;-57
2024/05/05 00:41:20;;;;;;;1.20;1.10;;;;;;;12.52;90.51;99692.25;5299622;26;20005;-55
2024/05/05 00:43:46;;;;;;;1.92;1.25;;;;;;;12.46;90.46;99687.00;5288236;26;19998;-57
2024/05/05 00:46:11;;;;;;;1.65;1.20;;;;;;;12.53;90.23;99693.88;5283345;26;20025;-57
2024/05/05 00:48:39;;;;;;;1.27;1.00;;;;;;;12.39;90.37;99666.09;5303623;26;19997;-56
2024/05/05 00:51:08;;;;;;;1.75;1.20;;;;;;;12.54;90.71;99689.47;5289618;27;20013;-57
2024/05/05 00:53:34;;;;;;;1.55;1.05;;;;;;;12.18;90.52;99635.66;5297580;26;20358;-58
2024/05/05 00:56:02;;;;;;;1.08;0.98;;;;;;;12.52;90.60;99700.06;5287593;27;20011;-56
2024/05/05 00:58:27;;;;;;;0.85;0.85;;;;;;;12.55;91.05;99698.91;5292745;26;20509;-58
2024/05/05 01:00:53;;;;;;;1.48;1.02;;;;;;;12.55;90.54;99699.69;5300083;26;19997;-57
2024/05/05 01:03:19;;;;;;;1.20;1.00;;;;;;;12.42;91.25;99676.16;5300064;26;20350;-56
2024/05/05 01:05:45;;;;;;;1.80;1.00;;;;;;;12.56;91.34;99697.94;5289297;26;20016;-57
2024/05/05 01:08:11;;;;;;;1.67;1.40;;;;;;;12.56;91.03;99701.34;5303315;26;20013;-57
2024/05/05 01:10:37;;;;;;;1.17;1.08;;;;;;;12.46;90.92;99687.00;5299076;26;20017;-57
2024/05/05 01:13:02;;;;;;;1.52;1.25;;;;;;;12.49;91.65;99690.03;5279899;27;20003;-57
2024/05/05 01:15:27;;;;;;;1.65;1.30;;;;;;;12.50;91.65;99702.06;5291145;27;20005;-58
2024/05/05 01:17:53;;;;;;;1.48;1.13;;;;;;;12.49;92.00;99690.03;5290361;26;20003;-57
2024/05/05 01:20:18;;;;;;;3.42;1.13;;;;;;;12.14;92.05;99643.00;5301268;26;20002;-58
2024/05/05 01:22:50;;;;;;;1.17;1.08;;;;;;;12.21;92.05;99650.91;5295111;26;20020;-59
2024/05/05 01:25:15;;;;;;;3.40;1.42;;;;;;;12.33;92.17;99672.06;5275368;27;20001;-57
2024/05/05 01:27:41;;;;;;;1.70;1.50;;;;;;;12.38;92.29;99683.50;5290075;26;20024;-57
2024/05/05 01:30:07;;;;;;;1.02;0.95;;;;;;;12.30;92.59;99672.44;5292640;27;20013;-57
2024/05/05 01:32:35;;;;;;;2.50;1.38;;;;;;;12.36;92.89;99675.09;5268456;26;20081;-55
2024/05/05 01:35:00;;;;;;;1.52;1.10;;;;;;;12.39;92.73;99684.31;5273513;27;20474;-57
2024/05/05 01:37:26;;;;;;;1.33;1.08;;;;;;;12.37;93.19;99683.69;5269257;27;20002;-57
2024/05/05 01:39:51;;;;;;;1.80;1.42;;;;;;;12.39;92.89;99689.53;5272161;27;20025;-57
2024/05/05 01:42:16;;;;;;;1.35;1.23;;;;;;;12.26;92.94;99677.16;5272589;27;20455;-59
2024/05/05 01:44:42;;;;;;;3.03;1.15;;;;;;;12.29;92.94;99689.84;5279473;27;20068;-58
2024/05/05 01:47:07;;;;;;;1.30;1.10;;;;;;;12.27;93.44;99676.19;5280581;27;20010;-58
2024/05/05 01:49:32;;;;;;;4.95;1.23;;;;;;;12.31;93.57;99681.84;5294678;27;20411;-58
2024/05/05 01:51:58;;;;;;;2.28;1.40;;;;;;;12.33;93.78;99679.88;5276736;27;20002;-57
2024/05/05 01:54:23;;;;;;;4.85;1.60;;;;;;;12.21;93.82;99676.13;5274958;27;19998;-57
2024/05/05 01:56:48;;;;;;;1.50;1.10;;;;;;;12.27;93.92;99686.59;5273850;27;20002;-57
2024/05/05 01:59:14;;;;;;;1.33;1.10;;;;;;;12.31;94.37;99693.06;5274088;27;20009;-57
2024/05/05 02:01:39;;;;;;;2.60;1.25;;;;;;;12.31;93.85;99692.25;5273620;27;20013;-57
2024/05/05 02:04:04;;;;;;;1.15;1.00;;;;;;;12.19;94.37;99672.91;5273464;27;20013;-58
2024/05/05 02:06:29;;;;;;;1.60;1.05;;;;;;;12.28;94.61;99695.22;5279850;27;19998;-57
2024/05/05 02:08:55;;;;;;;2.47;1.30;;;;;;;12.30;94.35;99698.47;5288427;26;20003;-57
2024/05/05 02:11:20;;;;;;;2.00;1.33;;;;;;;12.19;94.62;99685.91;5295402;26;20038;-57
2024/05/05 02:13:46;;;;;;;1.40;1.13;;;;;;;12.19;94.68;99694.53;5289819;26;19998;-56
2024/05/05 02:16:12;;;;;;;1.15;1.05;;;;;;;12.12;95.11;99693.63;5297394;26;20496;-56
2024/05/05 02:18:40;;;;;;;1.60;1.13;;;;;;;11.92;95.36;99650.97;5297818;26;20002;-57
2024/05/05 02:21:06;;;;;;;2.53;1.20;;;;;;;12.24;95.15;99712.19;5296547;27;20024;-57
2024/05/05 02:23:32;;;;;;;1.33;1.10;;;;;;;12.20;95.18;99703.16;5290870;26;20002;-57
2024/05/05 02:25:57;;;;;;;3.30;1.63;;;;;;;12.14;95.42;99695.06;5295327;26;20431;-58
2024/05/05 02:28:23;;;;;;;2.67;1.30;;;;;;;12.23;95.18;99713.19;5272271;26;20400;-57
2024/05/05 02:30:48;;;;;;;2.50;1.33;;;;;;;12.17;95.40;99698.31;5273007;27;20487;-54
2024/05/05 02:33:15;;;;;;;3.30;1.10;;;;;;;12.24;95.73;99715.59;5286605;27;20002;-57
2024/05/05 02:35:40;;;;;;;2.03;1.38;;;;;;;12.24;96.09;99720.00;5276221;27;20022;-57
2024/05/05 02:38:05;;;;;;;1.40;1.27;;;;;;;12.18;95.50;99718.13;5276243;27;20339;-57
2024/05/05 02:40:31;;;;;;;2.15;1.02;;;;;;;12.17;95.85;99717.34;5276851;27;20461;-56
2024/05/05 02:42:56;;;;;;;1.27;1.10;;;;;;;12.09;95.58;99707.81;5275502;27;19995;-57
2024/05/05 02:45:21;;;;;;;1.80;1.10;;;;;;;12.14;95.80;99713.28;5275251;27;19999;-57
2024/05/05 02:47:47;;;;;;;1.88;1.38;;;;;;;12.13;96.60;99713.47;5276700;27;20006;-55
2024/05/05 02:50:12;;;;;;;1.80;1.40;;;;;;;12.15;95.80;99716.69;5290897;27;20013;-59
2024/05/05 02:52:37;;;;;;;1.67;1.20;;;;;;;12.14;96.11;99721.09;5276798;27;19998;-58
2024/05/05 02:55:07;;;;;;;1.60;1.33;;;;;;;12.23;96.01;99734.00;5275671;27;20002;-58
2024/05/05 02:57:32;;;;;;;3.10;1.40;;;;;;;12.23;96.27;99734.00;5287212;27;20009;-58
2024/05/05 02:59:57;;;;;;;2.42;1.25;;;;;;;12.22;96.60;99735.00;5304265;26;20002;-63
2024/05/05 03:02:23;;;;;;;2.30;1.27;;;;;;;12.21;96.81;99738.59;5311645;26;20331;-57
2024/05/05 03:04:48;;;;;;;3.72;1.30;;;;;;;12.16;96.34;99736.53;5308380;26;20009;-57
2024/05/05 03:07:13;;;;;;;1.33;1.20;;;;;;;12.18;96.34;99741.56;5312743;26;20005;-57
2024/05/05 03:09:41;;;;;;;2.13;1.30;;;;;;;11.88;96.91;99696.53;5309217;26;20076;-58
2024/05/05 03:12:06;;;;;;;1.70;1.30;;;;;;;12.17;96.92;99732.16;5309352;27;20052;-58
2024/05/05 03:14:32;;;;;;;1.50;1.27;;;;;;;11.67;96.97;99660.84;5307244;26;20338;-58
2024/05/05 03:16:57;;;;;;;1.40;1.02;;;;;;;12.12;96.63;99728.28;5304057;26;20005;-58
2024/05/05 03:19:22;;;;;;;1.20;1.00;;;;;;;12.08;96.92;99721.00;5306249;26;20020;-57
2024/05/05 03:21:48;;;;;;;1.58;1.05;;;;;;;12.14;96.60;99735.88;5304504;26;20017;-60
2024/05/05 03:24:15;;;;;;;3.40;1.13;;;;;;;12.11;96.62;99726.66;5306572;26;20425;-58
2024/05/05 03:26:41;;;;;;;1.67;0.95;;;;;;;12.06;96.58;99726.41;5306837;26;20083;-57
2024/05/05 03:29:09;;;;;;;2.47;1.00;;;;;;;12.14;96.52;99739.31;5304760;26;20449;-58
2024/05/05 03:31:35;;;;;;;1.80;0.90;;;;;;;12.12;97.07;99736.06;5306441;26;20018;-57
2024/05/05 03:34:00;;;;;;;1.35;1.10;;;;;;;12.14;97.07;99736.69;5306304;26;20481;-57
2024/05/05 03:36:25;;;;;;;1.15;0.98;;;;;;;12.09;96.82;99735.63;5297868;26;20346;-58
2024/05/05 03:38:50;;;;;;;1.27;1.00;;;;;;;11.84;97.07;99690.88;5287250;27;20466;-59
2024/05/05 03:41:16;;;;;;;2.08;1.20;;;;;;;12.00;97.26;99721.91;5270557;27;20006;-58
2024/05/05 03:43:41;;;;;;;1.00;0.82;;;;;;;12.11;97.26;99737.06;5306205;26;20016;-57
2024/05/05 03:46:06;;;;;;;3.10;1.17;;;;;;;12.00;96.83;99716.72;5307410;26;20001;-57
2024/05/05 03:48:32;;;;;;;3.47;1.70;;;;;;;11.43;96.93;99625.50;5307099;26;20005;-57
2024/05/05 03:50:57;;;;;;;1.27;1.17;;;;;;;12.08;96.71;99734.03;5307654;26;20038;-58
2024/05/05 03:53:23;;;;;;;1.38;1.20;;;;;;;12.06;96.93;99742.03;5308410;26;20002;-56
2024/05/05 03:55:48;;;;;;;1.20;1.10;;;;;;;11.88;97.27;99710.34;5308333;26;20091;-58
2024/05/05 03:58:13;;;;;;;1.40;1.02;;;;;;;12.03;96.87;99737.19;5308932;26;20068;-58
2024/05/05 04:00:39;;;;;;;2.08;1.35;;;;;;;12.01;96.92;99733.13;5309158;26;20016;-56
2024/05/05 04:03:06;;;;;;;1.70;1.60;;;;;;;11.95;97.25;99718.25;5271413;26;20014;-56
2024/05/05 04:05:32;;;;;;;1.48;1.02;;;;;;;11.75;97.12;99694.53;5241707;27;20011;-56
2024/05/05 04:07:58;;;;;;;1.67;1.35;;;;;;;12.02;97.00;99742.53;5246349;27;20021;-57
2024/05/05 04:10:24;;;;;;;1.75;1.50;;;;;;;12.02;96.43;99742.53;5242577;27;20392;-57
2024/05/05 04:12:49;;;;;;;1.85;1.30;;;;;;;11.93;96.68;99728.84;5242595;27;20014;-57
2024/05/05 04:15:14;;;;;;;4.70;1.50;;;;;;;12.01;97.04;99749.53;5248060;27;20018;-58
2024/05/05 04:17:40;;;;;;;2.20;1.45;;;;;;;11.96;96.39;99745.88;5249594;27;20011;-57
2024/05/05 04:20:05;;;;;;;1.50;1.40;;;;;;;11.97;96.54;99758.72;5243151;27;20009;-57
2024/05/05 04:22:31;;;;;;;1.75;1.30;;;;;;;11.97;95.70;99763.91;5242192;27;20435;-58
2024/05/05 04:24:56;;;;;;;1.50;1.20;;;;;;;11.92;95.88;99755.84;5243836;27;20506;-57
2024/05/05 04:27:21;;;;;;;1.40;1.25;;;;;;;11.89;95.76;99756.22;5243354;27;20011;-57
2024/05/05 04:29:47;;;;;;;1.77;1.20;;;;;;;11.90;95.60;99768.22;5244033;27;20289;-56
2024/05/05 04:32:12;;;;;;;1.75;1.30;;;;;;;11.81;95.56;99751.91;5244430;26;20464;-57
2024/05/05 04:34:37;;;;;;;1.30;1.10;;;;;;;11.84;95.07;99774.13;5243795;27;20003;-58
2024/05/05 04:37:03;;;;;;;1.90;1.10;;;;;;;11.85;94.96;99778.34;5245264;27;20021;-57
2024/05/05 04:39:28;;;;;;;1.55;1.45;;;;;;;11.80;95.63;99771.09;5249119;27;20007;-57
2024/05/05 04:41:53;;;;;;;1.63;1.42;;;;;;;11.82;95.52;99781.31;5258042;27;20002;-57
2024/05/05 04:44:19;;;;;;;4.53;1.75;;;;;;;10.88;95.25;99624.94;5242634;27;20003;-56
2024/05/05 04:46:44;;;;;;;2.00;1.48;;;;;;;11.78;94.97;99777.44;5243264;27;20685;-57
2024/05/05 04:49:10;;;;;;;1.63;1.52;;;;;;;11.72;95.07;99768.53;5259266;27;20093;-55
2024/05/05 04:51:35;;;;;;;1.58;1.30;;;;;;;11.76;95.16;99776.81;5245319;27;20003;-57
2024/05/05 04:54:00;;;;;;;1.63;1.35;;;;;;;11.57;95.04;99746.09;5272543;27;20011;-59
2024/05/05 04:56:26;;;;;;;2.20;1.50;;;;;;;11.75;95.47;99785.56;5245446;27;20015;-57
2024/05/05 04:58:51;;;;;;;3.47;1.40;;;;;;;11.71;94.99;99773.91;5248332;27;20022;-58
2024/05/05 05:01:16;;;;;;;2.90;1.45;;;;;;;11.66;94.81;99773.66;5245940;27;20047;-57
2024/05/05 05:03:42;;;;;;;2.40;1.58;;;;;;;11.69;95.09;99771.50;5245288;27;20089;-56
2024/05/05 05:06:07;;;;;;;2.20;1.70;;;;;;;11.79;95.15;99785.09;5263355;27;19998;-57
2024/05/05 05:08:32;;;;;;;2.88;1.40;;;;;;;11.71;95.23;99768.72;5274739;27;20017;-56
2024/05/05 05:10:58;;;;;;;2.10;1.63;;;;;;;11.86;94.67;99782.56;5273873;27;19998;-57
2024/05/05 05:13:25;;;;;;;1.55;1.40;;;;;;;11.72;94.65;99768.53;5274289;27;20010;-57
2024/05/05 05:15:54;;;;;;;2.03;1.60;;;;;;;11.82;94.94;99771.72;5262718;27;20023;-57
2024/05/05 05:18:19;;;;;;;1.40;1.17;;;;;;;11.95;94.48;99776.28;5256858;27;20031;-57
2024/05/05 05:20:45;;;;;;;2.03;1.42;;;;;;;12.05;94.48;99789.84;5244989;27;20077;-57
2024/05/05 05:23:10;;;;;;;1.58;1.38;;;;;;;12.05;94.32;99784.66;5250233;26;20037;-56
2024/05/05 05:25:35;;;;;;;2.33;1.45;;;;;;;12.12;94.36;99789.94;5248264;27;20018;-55
2024/05/05 05:28:01;;;;;;;2.67;1.80;;;;;;;12.20;93.62;99795.06;5251875;27;20014;-56
2024/05/05 05:30:26;;;;;;;3.05;1.50;;;;;;;12.27;94.14;99802.94;5248425;27;20058;-57
2024/05/05 05:32:52;;;;;;;2.00;0.93;;;;;;;12.34;93.79;99798.63;5251566;27;20407;-57
2024/05/05 05:35:17;;;;;;;3.72;1.90;;;;;;;12.41;93.50;99809.91;5248585;26;20613;-58
2024/05/05 05:37:42;;;;;;;1.50;1.30;;;;;;;12.38;93.58;99807.69;5259288;27;20076;-59
2024/05/05 05:40:08;;;;;;;1.88;1.15;;;;;;;12.37;92.99;99814.69;5254730;27;20524;-56
2024/05/05 05:42:35;;;;;;;2.05;1.23;;;;;;;12.26;92.70;99789.09;5248645;27;20743;-57
2024/05/05 05:45:00;;;;;;;1.67;1.30;;;;;;;12.31;93.20;99802.41;5253228;27;20086;-57
2024/05/05 05:47:29;;;;;;;3.30;1.38;;;;;;;12.36;92.75;99815.69;5249887;27;20011;-55
2024/05/05 05:49:58;;;;;;;0.88;0.82;;;;;;;12.32;92.73;99808.41;5254762;27;20017;-58
2024/05/05 05:52:23;;;;;;;1.55;1.10;;;;;;;12.32;92.46;99801.41;5249448;27;20007;-58
2024/05/05 05:54:48;;;;;;;4.57;1.00;;;;;;;12.45;92.80;99818.19;5250509;27;19999;-57
2024/05/05 05:57:14;;;;;;;1.98;1.27;;;;;;;12.53;92.49;99811.06;5256515;26;20021;-57
2024/05/05 05:59:39;;;;;;;1.38;0.93;;;;;;;12.59;92.97;99806.94;5278334;27;20108;-57
2024/05/05 06:02:04;;;;;;;1.13;1.05;;;;;;;12.60;92.12;99801.56;5267733;27;20420;-57
2024/05/05 06:04:30;;;;;;;1.33;1.20;;;;;;;12.66;91.65;99810.41;5263623;27;20410;-57
2024/05/05 06:06:55;;;;;;;1.23;1.05;;;;;;;12.68;91.74;99818.84;5272209;27;20763;-58
2024/05/05 06:09:20;;;;;;;1.92;1.20;;;;;;;12.73;91.96;99817.31;5263233;26;20348;-56
2024/05/05 06:11:46;;;;;;;1.10;1.00;;;;;;;12.74;91.26;99812.94;5268743;27;20007;-58
2024/05/05 06:14:11;;;;;;;1.58;1.20;;;;;;;12.88;90.88;99814.69;5263170;26;20021;-59
2024/05/05 06:16:36;;;;;;;1.20;1.10;;;;;;;12.89;90.38;99802.47;5258520;27;20003;-58
2024/05/05 06:19:02;;;;;;;1.20;1.10;;;;;;;13.02;90.45;99802.59;5264016;27;20738;-57
2024/05/05 06:21:27;;;;;;;1.10;1.00;;;;;;;13.40;90.44;99818.81;5262711;27;20475;-57
2024/05/05 06:23:52;;;;;;;1.50;1.27;;;;;;;13.59;88.98;99814.75;5282403;27;20006;-57
2024/05/05 06:26:17;;;;;;;1.33;1.05;;;;;;;13.76;88.42;99821.31;5259317;26;20016;-57
2024/05/05 06:28:43;;;;;;;1.17;1.00;;;;;;;13.86;88.06;99805.31;5257036;27;20114;-59
2024/05/05 06:31:08;;;;;;;1.50;1.23;;;;;;;13.96;86.88;99808.38;5262017;27;20007;-57
2024/05/05 06:33:33;;;;;;;2.10;1.40;;;;;;;14.04;84.76;99820.50;5273280;27;20003;-57
2024/05/05 06:35:59;;;;;;;2.33;1.35;;;;;;;14.02;84.77;99814.63;5270356;27;20064;-56
2024/05/05 06:38:24;;;;;;;1.30;1.20;;;;;;;14.15;84.80;99817.31;5275070;27;20003;-57
2024/05/05 06:40:50;;;;;;;2.10;1.40;;;;;;;13.96;84.27;99782.28;5269384;27;20081;-58
2024/05/05 06:43:15;;;;;;;2.95;1.15;;;;;;;14.19;83.10;99818.56;5265006;26;20037;-57
2024/05/05 06:45:40;;;;;;;1.38;1.10;;;;;;;14.22;83.17;99822.59;5269829;27;20058;-57
2024/05/05 06:48:07;;;;;;;1.58;0.95;;;;;;;14.25;82.75;99819.59;5270518;27;20002;-56
2024/05/05 06:50:33;;;;;;;1.40;0.90;;;;;;;14.07;82.75;99783.56;5271708;27;20017;-57
2024/05/05 06:52:58;;;;;;;1.67;0.88;;;;;;;14.11;82.41;99779.53;5268811;27;20022;-57
2024/05/05 06:55:24;;;;;;;0.77;0.77;;;;;;;14.42;82.26;99823.47;5256030;26;20018;-56
2024/05/05 06:57:49;;;;;;;1.10;1.00;;;;;;;14.59;82.20;99837.06;5267333;27;20002;-59
2024/05/05 07:00:15;;;;;;;2.47;1.30;;;;;;;14.61;80.63;99840.28;5261757;26;20013;-57
2024/05/05 07:02:40;;;;;;;1.38;1.13;;;;;;;14.56;81.17;99850.53;5259871;27;20006;-57
2024/05/05 07:05:06;;;;;;;1.88;1.10;;;;;;;14.55;80.67;99848.88;5264768;27;20079;-57
2024/05/05 07:07:32;;;;;;;1.83;1.10;;;;;;;14.49;81.49;99838.22;5258224;27;20013;-60
2024/05/05 07:09:57;;;;;;;1.00;0.90;;;;;;;14.47;80.25;99842.84;5265948;27;20007;-57
2024/05/05 07:12:23;;;;;;;1.83;1.10;;;;;;;14.51;79.81;99845.84;5258206;26;20043;-57
2024/05/05 07:14:48;;;;;;;3.03;1.10;;;;;;;14.51;80.18;99829.38;5257955;27;20054;-57
2024/05/05 07:17:14;;;;;;;2.10;1.35;;;;;;;14.61;78.99;99838.47;5262238;26;20001;-58
2024/05/05 07:19:39;;;;;;;0.85;0.82;;;;;;;14.58;79.10;99819.78;5251834;27;20018;-57
2024/05/05 07:22:05;;;;;;;1.30;1.20;;;;;;;14.81;77.96;99843.75;5271128;27;20088;-55
2024/05/05 07:24:30;;;;;;;1.27;1.05;;;;;;;14.77;78.01;99819.03;5253142;27;20838;-58
2024/05/05 07:26:56;;;;;;;1.58;1.30;;;;;;;14.95;78.20;99845.41;5253907;27;20018;-57
2024/05/05 07:29:21;;;;;;;1.30;1.10;;;;;;;14.99;77.02;99830.16;5257699;26;20002;-57
2024/05/05 07:31:46;;;;;;;4.05;1.67;;;;;;;15.11;76.65;99838.22;5249239;27;20015;-59
2024/05/05 07:34:12;;;;;;;2.03;1.20;;;;;;;15.12;76.39;99835.41;5259031;26;20417;-58
2024/05/05 07:36:37;;;;;;;2.47;1.30;;;;;;;15.20;75.99;99837.00;5258072;27;20006;-59
2024/05/05 07:39:02;;;;;;;1.27;0.77;;;;;;;15.28;76.40;99831.59;5267247;27;20003;-58
2024/05/05 07:41:28;;;;;;;1.15;0.93;;;;;;;15.31;75.35;99839.03;5251719;26;20018;-56
2024/05/05 07:43:53;;;;;;;1.55;1.02;;;;;;;15.23;75.85;99832.22;5265909;27;20002;-60
2024/05/05 07:46:18;;;;;;;2.53;1.45;;;;;;;15.23;75.10;99850.53;5269682;26;20017;-58
2024/05/05 07:48:43;;;;;;;1.00;0.90;;;;;;;14.98;74.96;99845.03;5254346;27;20014;-58
2024/05/05 07:51:12;;;;;;;1.00;0.90;;;;;;;14.90;75.89;99850.44;5261310;27;20006;-57
2024/05/05 07:53:41;;;;;;;1.83;1.00;;;;;;;14.91;77.38;99854.66;5254477;27;20018;-62
2024/05/05 07:56:06;;;;;;;1.17;0.90;;;;;;;14.74;75.02;99838.53;5262593;27;19997;-59
2024/05/05 07:58:32;;;;;;;1.65;1.00;;;;;;;14.67;74.75;99855.16;5259000;26;20002;-56
2024/05/05 08:00:57;;;;;;;2.92;0.98;;;;;;;14.42;75.45;99841.75;5287239;27;20005;-57
2024/05/05 08:03:22;;;;;;;1.55;1.00;;;;;;;14.24;76.02;99857.94;5284193;26;20006;-55
2024/05/05 08:05:48;;;;;;;1.00;0.90;;;;;;;14.11;77.88;99858.69;5265355;26;20015;-63
2024/05/05 08:08:13;;;;;;;1.98;1.20;;;;;;;14.03;79.08;99851.00;5283893;26;20005;-59
2024/05/05 08:10:38;;;;;;;0.73;0.73;;;;;;;13.71;79.19;99821.06;5286568;27;20010;-56
2024/05/05 08:13:04;;;;;;;0.95;0.95;;;;;;;13.93;79.91;99870.59;5288746;27;20018;-59
2024/05/05 08:15:29;;;;;;;1.98;0.90;;;;;;;13.85;78.90;99855.88;5291242;27;20018;-57
2024/05/05 08:17:54;;;;;;;1.13;1.02;;;;;;;13.81;78.43;99860.69;5291056;26;20022;-57
2024/05/05 08:20:19;;;;;;;1.10;0.90;;;;;;;13.82;78.25;99856.28;5285111;27;20002;-57
2024/05/05 08:22:46;;;;;;;1.00;0.90;;;;;;;13.95;78.22;99874.63;5291076;26;20021;-56
2024/05/05 08:25:12;;;;;;;0.77;0.70;;;;;;;13.98;77.48;99869.03;5292086;27;20083;-57
2024/05/05 08:27:37;;;;;;;1.92;1.00;;;;;;;13.85;77.60;99859.31;5292306;27;20473;-57
2024/05/05 08:30:03;;;;;;;0.98;0.90;;;;;;;13.89;79.29;99868.38;5287124;27;20024;-57
2024/05/05 08:32:28;;;;;;;1.60;1.23;;;;;;;13.83;80.17;99876.97;5283055;27;20006;-58
2024/05/05 08:34:53;;;;;;;1.83;1.10;;;;;;;13.68;79.97;99878.84;5289485;26;20014;-58
2024/05/05 08:37:19;;;;;;;1.85;1.10;;;;;;;13.56;79.10;99875.13;5293541;26;20002;-57
2024/05/05 08:39:44;;;;;;;0.90;0.90;;;;;;;13.42;79.81;99889.03;5284090;26;20021;-57
2024/05/05 08:42:12;;;;;;;1.23;1.05;;;;;;;13.32;79.82;99884.94;5291664;26;20013;-57
2024/05/05 08:44:37;;;;;;;1.48;1.30;;;;;;;13.13;79.32;99876.91;5283082;26;20002;-59
2024/05/05 08:47:06;;;;;;;0.90;0.85;;;;;;;13.16;79.80;99882.53;5277581;26;20012;-57
2024/05/05 08:49:32;;;;;;;1.10;1.00;;;;;;;13.06;79.93;99866.38;5276677;26;20001;-57
2024/05/05 08:51:59;;;;;;;1.45;1.13;;;;;;;13.15;78.82;99882.72;5295357;27;20089;-59
2024/05/05 08:54:26;;;;;;;4.18;0.90;;;;;;;13.14;79.72;99886.31;5286306;27;20001;-57
2024/05/05 08:56:52;;;;;;;0.93;0.93;;;;;;;13.12;78.95;99878.69;5282058;27;20056;-59
2024/05/05 08:59:17;;;;;;;1.38;1.25;;;;;;;13.48;77.88;99890.91;5269628;26;19998;-57
2024/05/05 09:01:43;;;;;;;1.10;0.90;;;;;;;13.65;77.80;99888.88;5299863;26;20017;-58
2024/05/05 09:04:19;;;;;;;1.55;1.02;;;;;;;13.61;77.46;99859.72;5293074;27;20020;-56
2024/05/05 09:06:54;;;;;;;1.40;0.90;;;;;;;14.02;77.28;99887.72;5292169;27;20014;-55
2024/05/05 09:09:21;;;;;;;1.60;0.93;;;;;;;14.18;76.09;99890.88;5288635;27;20002;-60
2024/05/05 09:11:48;;;;;;;1.27;1.10;;;;;;;14.30;74.94;99875.47;5299220;27;20014;-58
2024/05/05 09:14:23;;;;;;;2.05;1.15;;;;;;;14.50;74.75;99891.28;5283779;26;20385;-57
2024/05/05 09:16:49;;;;;;;2.58;1.20;;;;;;;14.68;73.49;99888.13;5275314;27;20076;-58
2024/05/05 09:19:15;;;;;;;1.40;1.10;;;;;;;15.07;73.59;99883.06;5285850;26;20005;-59
2024/05/05 09:21:41;;;;;;;1.10;0.90;;;;;;;15.62;71.99;99888.19;5288474;26;19999;-57
2024/05/05 09:24:10;;;;;;;0.95;0.90;;;;;;;16.22;71.33;99887.16;5288298;27;20307;-56
2024/05/05 09:26:36;;;;;;;1.73;1.05;;;;;;;16.77;69.35;99873.72;5293305;27;20033;-57
2024/05/05 09:29:05;;;;;;;1.88;1.05;;;;;;;16.88;67.32;99840.81;5277845;27;20348;-59
2024/05/05 09:31:31;;;;;;;0.60;0.60;;;;;;;17.56;66.57;99875.06;5303139;26;20134;-58
2024/05/05 09:34:00;;;;;;;1.75;0.70;;;;;;;18.00;64.92;99871.50;5280609;27;20644;-56
2024/05/05 09:36:29;;;;;;;0.73;0.60;;;;;;;18.42;64.70;99871.66;5279886;26;20014;-58
2024/05/05 09:38:57;;;;;;;1.02;0.90;;;;;;;18.45;61.25;99869.44;5277401;27;20445;-57
2024/05/05 09:41:22;;;;;;;2.70;0.90;;;;;;;18.10;61.14;99856.03;5287212;26;20005;-57
2024/05/05 09:43:48;;;;;;;2.55;0.90;;;;;;;17.64;60.47;99866.94;5284506;26;19998;-60
2024/05/05 09:46:13;;;;;;;1.23;1.02;;;;;;;17.57;60.21;99851.22;5274887;26;19999;-59
2024/05/05 09:48:40;;;;;;;0.70;0.70;;;;;;;18.04;60.06;99867.44;5270516;27;20017;-58
2024/05/05 09:51:10;;;;;;;1.80;0.63;;;;;;;18.47;60.98;99861.31;5276530;27;20028;-57
2024/05/05 09:53:50;;;;;;;0.73;0.60;;;;;;;18.67;58.80;99825.06;5272068;26;20014;-59
2024/05/05 09:56:28;;;;;;;1.52;0.52;;;;;;;18.84;56.61;99870.00;5291043;27;20001;-57
2024/05/05 09:59:15;;;;;;;1.60;0.65;;;;;;;18.30;57.68;99864.53;5306715;26;20074;-59
2024/05/05 10:01:45;;;;;;;0.60;0.60;;;;;;;17.65;58.75;99868.56;5276465;26;20354;-59
2024/05/05 10:04:11;;;;;;;;;;;;;;;17.47;59.93;99865.84;5274553;27;20084;-59
2024/05/05 10:06:44;;;;;;;0.52;0.50;;;;;;;17.38;60.36;99868.75;5272109;26;19926;-60
2024/05/05 10:09:11;;;;;;;0.85;0.70;;;;;;;16.92;60.92;99839.34;5290347;27;20079;-57
2024/05/05 10:11:38;;;;;;;2.50;0.70;;;;;;;16.80;62.37;99853.13;5280470;26;19998;-57
2024/05/05 10:14:06;;;;;;;3.53;0.80;;;;;;;16.69;62.03;99871.31;5282806;27;20007;-57
2024/05/05 10:16:43;;;;;;;1.23;0.73;;;;;;;16.47;62.50;99886.50;5283612;26;20010;-58
2024/05/05 10:19:16;;;;;;;2.45;0.80;;;;;;;16.24;62.99;99885.16;5286040;27;20541;-56
2024/05/05 10:21:41;;;;;;;0.80;0.80;;;;;;;16.03;62.95;99874.13;5279018;26;20001;-56
2024/05/05 10:24:06;;;;;;;1.50;0.77;;;;;;;16.00;63.82;99883.16;5285370;27;19998;-57
2024/05/05 10:26:32;;;;;;;0.95;0.85;;;;;;;15.90;64.06;99864.47;5284698;26;20012;-60
2024/05/05 10:28:57;;;;;;;1.20;0.60;;;;;;;16.00;64.81;99887.59;5280551;27;20003;-58
2024/05/05 10:31:22;;;;;;;0.85;0.73;;;;;;;15.93;64.40;99882.38;5282701;26;20006;-57
2024/05/05 10:33:50;;;;;;;1.08;0.80;;;;;;;16.15;64.59;99888.97;5277223;26;20007;-57
2024/05/05 10:36:17;;;;;;;1.55;0.85;;;;;;;16.33;62.21;99875.25;5296884;26;20017;-57
2024/05/05 10:38:42;;;;;;;1.88;0.80;;;;;;;16.98;61.43;99855.06;5275102;26;20064;-59
2024/05/05 10:41:08;;;;;;;1.88;0.68;;;;;;;17.64;58.62;99848.56;5277108;27;19999;-57
2024/05/05 10:43:36;;;;;;;1.75;0.80;;;;;;;18.35;56.91;99869.13;5279387;27;20002;-58
2024/05/05 10:46:04;;;;;;;3.00;1.80;;;;;;;18.96;56.73;99870.81;5282658;27;20022;-58
2024/05/05 10:48:29;;;;;;;2.33;0.90;;;;;;;19.32;54.14;99871.75;5287151;26;20456;-58
2024/05/05 10:50:56;;;;;;;1.50;0.95;;;;;;;19.50;52.43;99861.16;5277154;27;20007;-57
2024/05/05 10:53:21;;;;;;;0.82;0.70;;;;;;;19.19;52.45;99865.66;5264639;27;20003;-57
2024/05/05 10:55:47;;;;;;;2.13;0.73;;;;;;;19.24;53.60;99857.09;5290145;27;20013;-57
2024/05/05 10:58:13;;;;;;;1.02;0.75;;;;;;;19.55;51.89;99858.66;5294538;26;20048;-58
2024/05/05 11:00:39;;;;;;;1.88;1.60;;;;;;;19.80;51.43;99852.41;5289441;26;20021;-59
2024/05/05 11:03:08;;;;;;;1.00;0.80;;;;;;;20.01;49.92;99847.31;5289858;27;20007;-57
2024/05/05 11:05:36;;;;;;;1.50;1.00;;;;;;;20.18;50.84;99868.53;5290884;26;20009;-57
2024/05/05 11:08:02;;;;;;;2.08;0.63;;;;;;;20.64;48.24;99845.75;5286176;27;20191;-56
2024/05/05 11:10:27;;;;;;;1.73;1.20;;;;;;;21.07;48.73;99844.41;5294555;26;20001;-57
2024/05/05 11:12:53;;;;;;;1.67;1.20;;;;;;;21.20;47.95;99849.41;5286267;26;20019;-57
2024/05/05 11:15:26;;;;;;;2.78;1.42;;;;;;;20.83;49.23;99857.75;5294648;26;20002;-60
2024/05/05 11:18:06;;;;;;;2.00;1.20;;;;;;;20.94;49.00;99867.44;5287985;26;19999;-55
2024/05/05 11:20:33;;;;;;;1.10;0.80;;;;;;;20.97;46.87;99850.34;5295577;26;19998;-58
2024/05/05 11:23:01;;;;;;;1.20;0.80;;;;;;;20.96;46.24;99865.34;5290010;27;20094;-58
2024/05/05 11:25:26;;;;;;;0.95;0.50;;;;;;;20.89;46.83;99837.50;5294867;27;19998;-56
2024/05/05 11:27:51;;;;;;;0.47;0.47;;;;;;;21.24;46.18;99855.81;5289371;26;20371;-58